createdAt,value
2018-12-22T00:00:27.763Z,9.72
2018-12-22T00:01:27.761Z,9.72
2018-12-22T00:02:27.743Z,9.61
2018-12-22T00:03:27.740Z,9.58
2018-12-22T00:04:27.736Z,9.60
2018-12-22T00:05:27.714Z,9.58
2018-12-22T00:06:27.699Z,9.58
2018-12-22T00:07:27.693Z,9.64
2018-12-22T00:08:27.684Z,9.60
2018-12-22T00:09:27.677Z,9.58
2018-12-22T00:10:27.675Z,9.65
2018-12-22T00:11:27.671Z,9.60
2018-12-22T00:12:27.657Z,9.64
2018-12-22T00:13:27.650Z,9.60
2018-12-22T00:14:27.620Z,9.60
2018-12-22T00:15:27.605Z,9.54
2018-12-22T00:16:27.598Z,9.53
2018-12-22T00:17:27.588Z,9.48
2018-12-22T00:18:27.578Z,9.54
2018-12-22T00:19:27.561Z,9.50
2018-12-22T00:20:27.576Z,9.48
2018-12-22T00:21:27.544Z,9.42
2018-12-22T00:22:27.540Z,9.40
2018-12-22T00:23:27.523Z,9.42
2018-12-22T00:24:27.517Z,9.40
2018-12-22T00:25:27.501Z,9.42
2018-12-22T00:26:27.493Z,9.36
2018-12-22T00:27:27.479Z,9.31
2018-12-22T00:28:27.476Z,9.40
2018-12-22T00:29:27.462Z,9.46
2018-12-22T00:30:27.453Z,9.36
2018-12-22T00:31:27.439Z,9.36
2018-12-22T00:32:27.430Z,9.42
2018-12-22T00:33:27.437Z,9.38
2018-12-22T00:34:27.419Z,9.33
2018-12-22T00:35:27.401Z,9.36
2018-12-22T00:36:27.378Z,9.40
2018-12-22T00:37:27.374Z,9.26
2018-12-22T00:38:27.357Z,9.31
2018-12-22T00:39:27.362Z,9.20
2018-12-22T00:40:27.339Z,9.15
2018-12-22T00:41:27.333Z,9.20
2018-12-22T00:42:27.324Z,9.15
2018-12-22T00:43:27.328Z,9.20
2018-12-22T00:44:27.302Z,9.20
2018-12-22T00:45:27.302Z,9.14
2018-12-22T00:46:27.278Z,9.14
2018-12-22T00:47:27.278Z,9.17
2018-12-22T00:48:27.252Z,9.26
2018-12-22T00:49:27.246Z,9.21
2018-12-22T00:50:27.239Z,9.17
2018-12-22T00:51:27.235Z,9.28
2018-12-22T00:52:27.222Z,9.21
2018-12-22T00:53:27.202Z,9.24
2018-12-22T00:54:27.196Z,9.18
2018-12-22T00:55:27.185Z,9.18
2018-12-22T00:56:27.178Z,9.11
2018-12-22T00:57:27.162Z,9.13
2018-12-22T00:58:30.813Z,9.05
2018-12-22T00:59:27.153Z,9.11
2018-12-22T01:00:27.124Z,9.05
2018-12-22T01:01:27.115Z,8.96
2018-12-22T01:02:27.108Z,9.02
2018-12-22T01:03:27.099Z,8.94
2018-12-22T01:04:27.086Z,8.96
2018-12-22T01:05:27.082Z,9.05
2018-12-22T01:06:27.066Z,9.08
2018-12-22T01:07:27.058Z,9.13
2018-12-22T01:08:27.045Z,9.05
2018-12-22T01:09:27.039Z,9.02
2018-12-22T01:10:27.026Z,8.99
2018-12-22T01:11:27.006Z,9.15
2018-12-22T01:12:27.002Z,9.14
2018-12-22T01:13:26.988Z,9.05
2018-12-22T01:14:26.980Z,9.08
2018-12-22T01:15:26.966Z,9.05
2018-12-22T01:16:26.963Z,9.18
2018-12-22T01:17:26.942Z,9.13
2018-12-22T01:18:26.938Z,9.21
2018-12-22T01:19:26.953Z,9.13
2018-12-22T01:20:26.920Z,9.20
2018-12-22T01:21:26.900Z,9.18
2018-12-22T01:22:26.888Z,9.31
2018-12-22T01:23:26.885Z,9.29
2018-12-22T01:24:26.872Z,9.29
2018-12-22T01:25:26.858Z,9.36
2018-12-22T01:26:26.848Z,9.31
2018-12-22T01:27:26.838Z,9.29
2018-12-22T01:28:26.822Z,9.29
2018-12-22T01:29:26.815Z,9.31
2018-12-22T01:30:26.814Z,9.29
2018-12-22T01:31:26.800Z,9.33
2018-12-22T01:32:26.796Z,9.28
2018-12-22T01:33:26.772Z,9.23
2018-12-22T01:34:26.762Z,9.29
2018-12-22T01:35:26.754Z,9.33
2018-12-22T01:36:26.743Z,9.15
2018-12-22T01:37:26.729Z,9.31
2018-12-22T01:38:26.733Z,9.21
2018-12-22T01:39:26.718Z,9.23
2018-12-22T01:40:26.701Z,9.32
2018-12-22T01:41:26.690Z,9.28
2018-12-22T01:42:26.734Z,9.33
2018-12-22T01:43:26.668Z,9.18
2018-12-22T01:44:26.659Z,9.28
2018-12-22T01:45:26.646Z,9.31
2018-12-22T01:46:26.632Z,9.23
2018-12-22T01:47:26.626Z,9.35
2018-12-22T01:48:26.614Z,9.29
2018-12-22T01:49:26.695Z,9.17
2018-12-22T01:50:26.591Z,9.24
2018-12-22T01:51:26.586Z,9.14
2018-12-22T01:52:26.569Z,9.20
2018-12-22T01:53:26.560Z,9.10
2018-12-22T01:54:26.544Z,9.10
2018-12-22T01:55:26.542Z,9.08
2018-12-22T01:56:26.522Z,9.01
2018-12-22T01:57:26.514Z,9.08
2018-12-22T01:58:26.508Z,9.04
2018-12-22T01:59:26.500Z,8.99
2018-12-22T02:00:26.484Z,8.99
2018-12-22T02:01:26.477Z,9.01
2018-12-22T02:02:26.460Z,8.94
2018-12-22T02:03:26.446Z,8.92
2018-12-22T02:04:26.443Z,8.83
2018-12-22T02:05:26.448Z,8.92
2018-12-22T02:06:26.419Z,8.95
2018-12-22T02:07:26.417Z,8.89
2018-12-22T02:08:26.410Z,8.91
2018-12-22T02:09:26.392Z,8.98
2018-12-22T02:10:26.370Z,9.01
2018-12-22T02:11:26.368Z,8.86
2018-12-22T02:12:26.349Z,8.92
2018-12-22T02:13:26.340Z,8.89
2018-12-22T02:14:26.335Z,8.92
2018-12-22T02:15:26.328Z,8.89
2018-12-22T02:16:26.311Z,8.94
2018-12-22T02:17:26.300Z,8.86
2018-12-22T02:18:26.299Z,8.98
2018-12-22T02:19:26.284Z,8.95
2018-12-22T02:20:26.265Z,8.94
2018-12-22T02:21:26.258Z,8.91
2018-12-22T02:22:26.256Z,8.89
2018-12-22T02:23:26.233Z,8.87
2018-12-22T02:24:26.228Z,8.76
2018-12-22T02:25:26.215Z,8.80
2018-12-22T02:26:26.206Z,8.76
2018-12-22T02:27:26.200Z,8.76
2018-12-22T02:28:26.200Z,8.80
2018-12-22T02:29:26.169Z,8.77
2018-12-22T02:30:26.165Z,8.73
2018-12-22T02:31:26.160Z,8.68
2018-12-22T02:32:26.141Z,8.70
2018-12-22T02:33:26.167Z,8.66
2018-12-22T02:34:26.194Z,8.62
2018-12-22T02:35:26.103Z,8.62
2018-12-22T02:36:26.093Z,8.62
2018-12-22T02:37:26.091Z,8.56
2018-12-22T02:38:26.075Z,8.62
2018-12-22T02:39:26.061Z,8.66
2018-12-22T02:40:26.051Z,8.58
2018-12-22T02:41:26.057Z,8.65
2018-12-22T02:42:26.039Z,8.59
2018-12-22T02:43:26.021Z,8.62
2018-12-22T02:44:26.005Z,8.65
2018-12-22T02:45:25.995Z,8.62
2018-12-22T02:46:25.993Z,8.65
2018-12-22T02:47:25.977Z,8.65
2018-12-22T02:48:25.961Z,8.59
2018-12-22T02:49:25.953Z,8.53
2018-12-22T02:50:25.942Z,8.53
2018-12-22T02:51:25.927Z,8.53
2018-12-22T02:52:25.918Z,8.52
2018-12-22T02:53:25.905Z,8.58
2018-12-22T02:54:25.912Z,8.58
2018-12-22T02:55:25.884Z,8.55
2018-12-22T02:56:25.879Z,8.56
2018-12-22T02:57:25.864Z,8.48
2018-12-22T02:58:25.851Z,8.47
2018-12-22T02:59:25.841Z,8.44
2018-12-22T03:00:25.829Z,8.52
2018-12-22T03:01:25.828Z,8.50
2018-12-22T03:02:25.813Z,8.48
2018-12-22T03:03:25.797Z,8.50
2018-12-22T03:04:25.812Z,8.44
2018-12-22T03:05:25.787Z,8.41
2018-12-22T03:06:25.763Z,8.43
2018-12-22T03:07:25.752Z,8.45
2018-12-22T03:08:25.744Z,8.41
2018-12-22T03:09:25.736Z,8.36
2018-12-22T03:10:25.719Z,8.41
2018-12-22T03:11:25.711Z,8.40
2018-12-22T03:12:25.699Z,8.36
2018-12-22T03:13:25.689Z,8.41
2018-12-22T03:14:25.693Z,8.40
2018-12-22T03:15:25.675Z,8.37
2018-12-22T03:16:25.667Z,8.37
2018-12-22T03:17:25.679Z,8.34
2018-12-22T03:18:25.641Z,8.33
2018-12-22T03:19:25.624Z,8.30
2018-12-22T03:20:25.613Z,8.38
2018-12-22T03:21:25.601Z,8.36
2018-12-22T03:22:25.595Z,8.34
2018-12-22T03:23:25.584Z,8.34
2018-12-22T03:24:25.565Z,8.37
2018-12-22T03:25:25.561Z,8.33
2018-12-22T03:26:25.555Z,8.26
2018-12-22T03:27:25.564Z,8.36
2018-12-22T03:28:25.524Z,8.26
2018-12-22T03:29:25.524Z,8.25
2018-12-22T03:30:25.513Z,8.28
2018-12-22T03:31:25.519Z,8.25
2018-12-22T03:32:25.485Z,8.26
2018-12-22T03:33:25.475Z,8.29
2018-12-22T03:34:25.461Z,8.25
2018-12-22T03:35:25.463Z,8.33
2018-12-22T03:36:25.439Z,8.25
2018-12-22T03:37:25.425Z,8.30
2018-12-22T03:38:25.421Z,8.25
2018-12-22T03:39:25.414Z,8.19
2018-12-22T03:40:25.407Z,8.22
2018-12-22T03:41:25.383Z,8.28
2018-12-22T03:42:25.377Z,8.22
2018-12-22T03:43:25.364Z,8.26
2018-12-22T03:44:25.356Z,8.15
2018-12-22T03:45:25.345Z,8.20
2018-12-22T03:46:25.346Z,8.12
2018-12-22T03:47:25.323Z,8.16
2018-12-22T03:48:25.307Z,8.22
2018-12-22T03:49:25.297Z,8.15
2018-12-22T03:50:25.289Z,8.19
2018-12-22T03:51:25.380Z,8.18
2018-12-22T03:52:25.277Z,8.16
2018-12-22T03:53:25.275Z,8.07
2018-12-22T03:54:25.245Z,8.12
2018-12-22T03:55:25.233Z,8.16
2018-12-22T03:56:25.232Z,8.02
2018-12-22T03:57:25.209Z,8.02
2018-12-22T03:58:25.218Z,8.01
2018-12-22T03:59:25.383Z,8.05
2018-12-22T04:00:25.172Z,8.07
2018-12-22T04:01:25.167Z,8.08
2018-12-22T04:02:25.149Z,8.04
2018-12-22T04:03:25.167Z,8.01
2018-12-22T04:04:25.151Z,8.02
2018-12-22T04:05:25.119Z,8.12
2018-12-22T04:06:25.105Z,7.95
2018-12-22T04:07:25.105Z,8.02
2018-12-22T04:08:25.090Z,8.07
2018-12-22T04:09:25.091Z,7.98
2018-12-22T04:10:25.073Z,8.08
2018-12-22T04:11:25.056Z,8.20
2018-12-22T04:12:25.053Z,8.02
2018-12-22T04:13:25.035Z,8.11
2018-12-22T04:14:25.023Z,8.08
2018-12-22T04:15:25.016Z,8.11
2018-12-22T04:16:25.016Z,8.01
2018-12-22T04:17:24.994Z,8.01
2018-12-22T04:18:24.971Z,8.11
2018-12-22T04:19:24.965Z,8.04
2018-12-22T04:20:24.959Z,7.98
2018-12-22T04:21:24.956Z,8.10
2018-12-22T04:22:24.935Z,8.07
2018-12-22T04:23:24.920Z,8.04
2018-12-22T04:24:24.908Z,8.10
2018-12-22T04:25:24.998Z,8.10
2018-12-22T04:26:24.934Z,8.12
2018-12-22T04:27:24.887Z,8.11
2018-12-22T04:28:24.864Z,8.16
2018-12-22T04:29:33.632Z,8.01
2018-12-22T04:30:25.845Z,8.11
2018-12-22T04:31:24.849Z,7.98
2018-12-22T04:32:24.825Z,8.10
2018-12-22T04:33:24.834Z,8.10
2018-12-22T04:34:24.802Z,8.12
2018-12-22T04:35:24.788Z,8.04
2018-12-22T04:36:24.778Z,8.00
2018-12-22T04:37:24.770Z,8.12
2018-12-22T04:38:24.758Z,8.10
2018-12-22T04:39:24.772Z,8.12
2018-12-22T04:40:24.738Z,8.05
2018-12-22T04:41:24.720Z,8.10
2018-12-22T04:42:24.716Z,8.01
2018-12-22T04:43:24.702Z,8.16
2018-12-22T04:44:24.695Z,8.08
2018-12-22T04:45:24.678Z,8.10
2018-12-22T04:46:24.668Z,8.11
2018-12-22T04:47:24.658Z,8.05
2018-12-22T04:48:24.642Z,8.15
2018-12-22T04:49:24.638Z,8.00
2018-12-22T04:50:24.626Z,8.02
2018-12-22T04:51:24.622Z,8.04
2018-12-22T04:52:24.604Z,8.08
2018-12-22T04:53:24.585Z,8.00
2018-12-22T04:54:24.581Z,8.04
2018-12-22T04:55:24.572Z,8.02
2018-12-22T04:56:24.572Z,8.01
2018-12-22T04:57:24.561Z,8.04
2018-12-22T04:58:24.539Z,8.00
2018-12-22T04:59:24.537Z,8.02
2018-12-22T05:00:24.519Z,8.02
2018-12-22T05:01:24.536Z,8.00
2018-12-22T05:02:24.518Z,7.97
2018-12-22T05:03:24.483Z,7.98
2018-12-22T05:04:24.469Z,8.01
2018-12-22T05:05:24.466Z,7.98
2018-12-22T05:06:24.447Z,8.00
2018-12-22T05:07:24.438Z,7.85
2018-12-22T05:08:24.424Z,7.85
2018-12-22T05:09:24.413Z,7.97
2018-12-22T05:10:24.410Z,7.97
2018-12-22T05:11:24.398Z,7.89
2018-12-22T05:12:24.385Z,8.00
2018-12-22T05:13:24.378Z,8.01
2018-12-22T05:14:24.372Z,7.93
2018-12-22T05:15:24.507Z,7.92
2018-12-22T05:16:24.341Z,7.95
2018-12-22T05:17:24.324Z,7.95
2018-12-22T05:18:24.318Z,7.95
2018-12-22T05:19:24.311Z,7.98
2018-12-22T05:20:24.306Z,7.90
2018-12-22T05:21:24.281Z,7.89
2018-12-22T05:22:24.270Z,7.89
2018-12-22T05:23:24.260Z,7.97
2018-12-22T05:24:24.258Z,7.97
2018-12-22T05:25:24.248Z,7.90
2018-12-22T05:26:24.239Z,7.90
2018-12-22T05:27:24.215Z,7.90
2018-12-22T05:28:24.214Z,7.93
2018-12-22T05:29:24.189Z,7.90
2018-12-22T05:30:24.189Z,7.92
2018-12-22T05:31:24.174Z,7.95
2018-12-22T05:32:24.163Z,7.92
2018-12-22T05:33:24.154Z,8.00
2018-12-22T05:34:24.140Z,7.93
2018-12-22T05:35:24.130Z,7.92
2018-12-22T05:36:24.120Z,7.93
2018-12-22T05:37:24.113Z,7.92
2018-12-22T05:38:24.153Z,7.95
2018-12-22T05:39:24.087Z,7.98
2018-12-22T05:40:24.081Z,7.89
2018-12-22T05:41:24.079Z,7.89
2018-12-22T05:42:24.056Z,7.87
2018-12-22T05:43:24.058Z,7.87
2018-12-22T05:44:24.029Z,7.87
2018-12-22T05:45:24.020Z,7.85
2018-12-22T05:46:24.003Z,7.82
2018-12-22T05:47:24.006Z,7.87
2018-12-22T05:48:23.990Z,7.87
2018-12-22T05:49:23.974Z,7.93
2018-12-22T05:50:23.964Z,7.89
2018-12-22T05:51:23.965Z,7.83
2018-12-22T05:52:23.946Z,7.87
2018-12-22T05:53:23.940Z,7.89
2018-12-22T05:54:23.944Z,7.87
2018-12-22T05:55:23.903Z,7.86
2018-12-22T05:56:23.903Z,7.90
2018-12-22T05:57:23.885Z,7.86
2018-12-22T05:58:23.874Z,7.87
2018-12-22T05:59:23.867Z,7.83
2018-12-22T06:00:23.856Z,7.87
2018-12-22T06:01:23.837Z,7.83
2018-12-22T06:02:23.839Z,7.87
2018-12-22T06:03:23.825Z,7.82
2018-12-22T06:04:23.823Z,7.83
2018-12-22T06:05:23.801Z,7.82
2018-12-22T06:06:23.791Z,7.82
2018-12-22T06:07:23.784Z,7.82
2018-12-22T06:08:23.771Z,7.75
2018-12-22T06:09:23.767Z,7.83
2018-12-22T06:10:23.750Z,7.85
2018-12-22T06:11:23.743Z,7.77
2018-12-22T06:12:23.721Z,7.82
2018-12-22T06:13:23.710Z,7.79
2018-12-22T06:14:23.699Z,7.79
2018-12-22T06:15:23.685Z,7.86
2018-12-22T06:16:23.683Z,7.75
2018-12-22T06:17:23.677Z,7.72
2018-12-22T06:18:23.661Z,7.75
2018-12-22T06:19:23.645Z,7.77
2018-12-22T06:20:23.635Z,7.75
2018-12-22T06:21:23.618Z,7.75
2018-12-22T06:22:23.606Z,7.75
2018-12-22T06:23:23.607Z,7.83
2018-12-22T06:24:23.594Z,7.83
2018-12-22T06:25:23.582Z,7.75
2018-12-22T06:26:23.570Z,7.79
2018-12-22T06:27:23.568Z,7.72
2018-12-22T06:28:23.545Z,7.75
2018-12-22T06:29:23.538Z,7.74
2018-12-22T06:30:23.528Z,7.74
2018-12-22T06:31:23.511Z,7.72
2018-12-22T06:32:23.505Z,7.77
2018-12-22T06:33:23.492Z,7.80
2018-12-22T06:34:23.481Z,7.82
2018-12-22T06:35:23.469Z,7.71
2018-12-22T06:36:23.455Z,7.67
2018-12-22T06:37:23.445Z,7.71
2018-12-22T06:38:23.437Z,7.71
2018-12-22T06:39:23.425Z,7.63
2018-12-22T06:40:23.422Z,7.60
2018-12-22T06:41:23.405Z,7.71
2018-12-22T06:42:23.391Z,7.67
2018-12-22T06:43:23.380Z,7.68
2018-12-22T06:44:23.375Z,7.63
2018-12-22T06:45:23.353Z,7.69
2018-12-22T06:46:23.347Z,7.67
2018-12-22T06:47:23.336Z,7.64
2018-12-22T06:48:23.325Z,7.71
2018-12-22T06:49:23.317Z,7.67
2018-12-22T06:50:23.328Z,7.61
2018-12-22T06:51:23.301Z,7.68
2018-12-22T06:52:23.282Z,7.67
2018-12-22T06:53:23.271Z,7.64
2018-12-22T06:54:23.259Z,7.60
2018-12-22T06:55:23.245Z,7.60
2018-12-22T06:56:23.239Z,7.63
2018-12-22T06:57:23.230Z,7.61
2018-12-22T06:58:23.216Z,7.57
2018-12-22T06:59:23.209Z,7.60
2018-12-22T07:00:23.193Z,7.58
2018-12-22T07:01:23.193Z,7.64
2018-12-22T07:02:23.173Z,7.53
2018-12-22T07:03:23.165Z,7.49
2018-12-22T07:04:23.151Z,7.53
2018-12-22T07:05:23.142Z,7.55
2018-12-22T07:06:23.134Z,7.55
2018-12-22T07:07:23.115Z,7.49
2018-12-22T07:08:23.112Z,7.55
2018-12-22T07:09:23.093Z,7.52
2018-12-22T07:10:23.088Z,7.49
2018-12-22T07:11:23.072Z,7.52
2018-12-22T07:12:23.057Z,7.48
2018-12-22T07:13:23.055Z,7.46
2018-12-22T07:14:23.049Z,7.42
2018-12-22T07:15:23.029Z,7.43
2018-12-22T07:16:23.022Z,7.46
2018-12-22T07:17:23.004Z,7.43
2018-12-22T07:18:23.007Z,7.42
2018-12-22T07:19:22.989Z,7.37
2018-12-22T07:20:22.977Z,7.31
2018-12-22T07:21:22.968Z,7.30
2018-12-22T07:22:23.484Z,7.31
2018-12-22T07:23:22.941Z,7.23
2018-12-22T07:24:22.937Z,7.20
2018-12-22T07:25:22.919Z,7.25
2018-12-22T07:26:22.925Z,7.27
2018-12-22T07:27:22.926Z,7.25
2018-12-22T07:28:22.886Z,7.27
2018-12-22T07:29:22.877Z,7.28
2018-12-22T07:30:26.289Z,7.25
2018-12-22T07:31:22.859Z,7.30
2018-12-22T07:32:22.847Z,7.24
2018-12-22T07:33:22.837Z,7.24
2018-12-22T07:34:22.827Z,7.24
2018-12-22T07:35:22.815Z,7.25
2018-12-22T07:36:22.797Z,7.23
2018-12-22T07:37:22.810Z,7.31
2018-12-22T07:38:22.787Z,7.21
2018-12-22T07:39:22.795Z,7.39
2018-12-22T07:40:22.765Z,7.31
2018-12-22T07:41:22.748Z,7.32
2018-12-22T07:42:22.737Z,7.35
2018-12-22T07:43:22.731Z,7.34
2018-12-22T07:44:22.729Z,7.31
2018-12-22T07:45:22.701Z,7.34
2018-12-22T07:46:22.695Z,7.32
2018-12-22T07:47:22.677Z,7.32
2018-12-22T07:48:22.672Z,7.34
2018-12-22T07:49:22.693Z,7.32
2018-12-22T07:50:22.645Z,7.31
2018-12-22T07:51:22.641Z,7.34
2018-12-22T07:52:22.643Z,7.32
2018-12-22T07:53:22.617Z,7.37
2018-12-22T07:54:22.603Z,7.34
2018-12-22T07:55:22.611Z,7.34
2018-12-22T07:56:22.587Z,7.30
2018-12-22T07:57:22.573Z,7.24
2018-12-22T07:58:22.559Z,7.31
2018-12-22T07:59:22.553Z,7.31
2018-12-22T08:00:22.543Z,7.30
2018-12-22T08:01:22.531Z,7.37
2018-12-22T08:02:22.520Z,7.35
2018-12-22T08:03:22.509Z,7.37
2018-12-22T08:04:22.498Z,7.40
2018-12-22T08:05:22.490Z,7.35
2018-12-22T08:06:22.479Z,7.32
2018-12-22T08:07:22.471Z,7.40
2018-12-22T08:08:23.706Z,7.40
2018-12-22T08:09:22.455Z,7.39
2018-12-22T08:10:22.433Z,7.46
2018-12-22T08:11:22.424Z,7.28
2018-12-22T08:12:22.447Z,7.35
2018-12-22T08:13:22.406Z,7.32
2018-12-22T08:14:22.395Z,7.34
2018-12-22T08:15:22.381Z,7.42
2018-12-22T08:16:22.367Z,7.40
2018-12-22T08:17:22.353Z,7.37
2018-12-22T08:18:22.353Z,7.32
2018-12-22T08:19:22.333Z,7.48
2018-12-22T08:20:22.326Z,7.45
2018-12-22T08:21:22.319Z,7.37
2018-12-22T08:22:22.310Z,7.40
2018-12-22T08:23:22.295Z,7.55
2018-12-22T08:24:22.287Z,7.39
2018-12-22T08:25:22.297Z,7.45
2018-12-22T08:26:22.273Z,7.37
2018-12-22T08:27:22.253Z,7.37
2018-12-22T08:28:22.249Z,7.40
2018-12-22T08:29:22.235Z,7.52
2018-12-22T08:30:22.221Z,7.39
2018-12-22T08:31:23.164Z,7.50
2018-12-22T08:32:22.201Z,7.43
2018-12-22T08:33:22.219Z,7.55
2018-12-22T08:34:22.173Z,7.39
2018-12-22T08:35:22.167Z,7.49
2018-12-22T08:36:22.162Z,7.57
2018-12-22T08:37:22.147Z,7.49
2018-12-22T08:38:22.145Z,7.48
2018-12-22T08:39:22.122Z,7.52
2018-12-22T08:40:22.111Z,7.46
2018-12-22T08:41:22.101Z,7.49
2018-12-22T08:42:22.098Z,7.50
2018-12-22T08:43:22.103Z,7.45
2018-12-22T08:44:22.069Z,7.50
2018-12-22T08:45:22.054Z,7.43
2018-12-22T08:46:22.049Z,7.48
2018-12-22T08:47:22.037Z,7.48
2018-12-22T08:48:22.052Z,7.42
2018-12-22T08:49:22.026Z,7.42
2018-12-22T08:50:22.003Z,7.53
2018-12-22T08:51:21.996Z,7.52
2018-12-22T08:52:21.985Z,7.48
2018-12-22T08:53:21.973Z,7.50
2018-12-22T08:54:21.975Z,7.40
2018-12-22T08:55:21.955Z,7.43
2018-12-22T08:56:21.937Z,7.49
2018-12-22T08:57:21.930Z,7.39
2018-12-22T08:58:21.921Z,7.48
2018-12-22T08:59:21.905Z,7.52
2018-12-22T09:00:21.903Z,7.37
2018-12-22T09:01:21.889Z,7.50
2018-12-22T09:02:21.872Z,7.48
2018-12-22T09:03:21.865Z,7.49
2018-12-22T09:04:21.852Z,7.40
2018-12-22T09:05:21.847Z,7.40
2018-12-22T09:06:21.830Z,7.52
2018-12-22T09:07:21.821Z,7.53
2018-12-22T09:08:21.810Z,7.46
2018-12-22T09:09:21.797Z,7.55
2018-12-22T09:10:21.788Z,7.49
2018-12-22T09:11:21.807Z,7.43
2018-12-22T09:12:21.786Z,7.48
2018-12-22T09:13:21.757Z,7.42
2018-12-22T09:14:21.749Z,7.43
2018-12-22T09:15:21.739Z,7.43
2018-12-22T09:16:21.722Z,7.46
2018-12-22T09:17:21.720Z,7.50
2018-12-22T09:18:21.726Z,7.49
2018-12-22T09:19:21.702Z,7.45
2018-12-22T09:20:21.683Z,7.50
2018-12-22T09:21:21.664Z,7.58
2018-12-22T09:22:21.662Z,7.45
2018-12-22T09:23:21.655Z,7.50
2018-12-22T09:24:21.654Z,7.42
2018-12-22T09:25:21.624Z,7.50
2018-12-22T09:26:21.613Z,7.40
2018-12-22T09:27:21.602Z,7.40
2018-12-22T09:28:21.591Z,7.35
2018-12-22T09:29:21.593Z,7.42
2018-12-22T09:30:21.596Z,7.39
2018-12-22T09:31:21.567Z,7.40
2018-12-22T09:32:21.548Z,7.42
2018-12-22T09:33:21.549Z,7.43
2018-12-22T09:34:21.532Z,7.45
2018-12-22T09:35:21.524Z,7.32
2018-12-22T09:36:21.506Z,7.45
2018-12-22T09:37:21.514Z,7.43
2018-12-22T09:38:21.491Z,7.40
2018-12-22T09:39:21.476Z,7.46
2018-12-22T09:40:21.463Z,7.39
2018-12-22T09:41:21.452Z,7.39
2018-12-22T09:42:21.476Z,7.46
2018-12-22T09:43:21.434Z,7.31
2018-12-22T09:44:21.431Z,7.45
2018-12-22T09:45:21.407Z,7.32
2018-12-22T09:46:21.400Z,7.46
2018-12-22T09:47:21.400Z,7.37
2018-12-22T09:48:21.391Z,7.49
2018-12-22T09:49:21.363Z,7.37
2018-12-22T09:50:21.355Z,7.49
2018-12-22T09:51:21.342Z,7.49
2018-12-22T09:52:21.331Z,7.48
2018-12-22T09:53:21.331Z,7.42
2018-12-22T09:54:21.307Z,7.42
2018-12-22T09:55:21.309Z,7.37
2018-12-22T09:56:21.284Z,7.39
2018-12-22T09:57:21.273Z,7.45
2018-12-22T09:58:21.265Z,7.42
2018-12-22T09:59:21.257Z,7.46
2018-12-22T10:00:21.261Z,7.48
2018-12-22T10:01:21.232Z,7.45
2018-12-22T10:02:21.228Z,7.48
2018-12-22T10:03:21.214Z,7.42
2018-12-22T10:04:21.202Z,7.50
2018-12-22T10:05:21.190Z,7.42
2018-12-22T10:06:21.184Z,7.53
2018-12-22T10:07:21.169Z,7.42
2018-12-22T10:08:21.163Z,7.37
2018-12-22T10:09:21.148Z,7.52
2018-12-22T10:10:21.138Z,7.39
2018-12-22T10:11:21.126Z,7.37
2018-12-22T10:12:21.116Z,7.49
2018-12-22T10:13:21.109Z,7.50
2018-12-22T10:14:21.093Z,7.49
2018-12-22T10:15:21.088Z,7.39
2018-12-22T10:16:21.074Z,7.43
2018-12-22T10:17:21.070Z,7.34
2018-12-22T10:18:21.049Z,7.34
2018-12-22T10:19:21.042Z,7.35
2018-12-22T10:20:21.033Z,7.34
2018-12-22T10:21:21.026Z,7.31
2018-12-22T10:22:21.006Z,7.32
2018-12-22T10:23:21.015Z,7.37
2018-12-22T10:24:20.994Z,7.34
2018-12-22T10:25:20.965Z,7.37
2018-12-22T10:26:20.959Z,7.32
2018-12-22T10:27:22.515Z,7.32
2018-12-22T10:28:20.944Z,7.31
2018-12-22T10:29:20.924Z,7.32
2018-12-22T10:30:20.914Z,7.32
2018-12-22T10:31:20.907Z,7.21
2018-12-22T10:32:20.894Z,7.27
2018-12-22T10:33:20.890Z,7.24
2018-12-22T10:34:20.874Z,7.25
2018-12-22T10:35:20.862Z,7.17
2018-12-22T10:36:20.852Z,7.17
2018-12-22T10:37:20.842Z,7.16
2018-12-22T10:38:20.896Z,7.13
2018-12-22T10:39:20.830Z,7.02
2018-12-22T10:40:20.805Z,7.03
2018-12-22T10:41:20.792Z,7.07
2018-12-22T10:42:20.791Z,6.98
2018-12-22T10:43:20.771Z,6.95
2018-12-22T10:44:20.784Z,6.97
2018-12-22T10:45:20.760Z,6.95
2018-12-22T10:46:20.775Z,6.97
2018-12-22T10:47:20.728Z,6.81
2018-12-22T10:48:20.718Z,6.88
2018-12-22T10:49:20.708Z,6.84
2018-12-22T10:50:20.705Z,6.81
2018-12-22T10:51:24.344Z,6.85
2018-12-22T10:52:20.684Z,6.77
2018-12-22T10:53:20.668Z,6.80
2018-12-22T10:54:20.670Z,6.79
2018-12-22T10:55:20.642Z,6.71
2018-12-22T10:56:20.644Z,6.71
2018-12-22T10:57:20.621Z,6.80
2018-12-22T10:58:20.610Z,6.88
2018-12-22T10:59:20.618Z,6.76
2018-12-22T11:00:20.595Z,6.74
2018-12-22T11:01:26.392Z,6.89
2018-12-22T11:02:23.686Z,6.77
2018-12-22T11:03:20.554Z,6.87
2018-12-22T11:04:20.554Z,6.77
2018-12-22T11:05:20.561Z,6.80
2018-12-22T11:06:20.562Z,6.87
2018-12-22T11:07:20.511Z,6.88
2018-12-22T11:08:20.504Z,6.85
2018-12-22T11:09:20.493Z,6.77
2018-12-22T11:10:20.480Z,6.84
2018-12-22T11:11:20.484Z,6.80
2018-12-22T11:12:20.474Z,6.76
2018-12-22T11:13:20.452Z,6.92
2018-12-22T11:14:20.448Z,6.88
2018-12-22T11:15:20.426Z,6.92
2018-12-22T11:16:20.416Z,6.88
2018-12-22T11:17:20.408Z,6.92
2018-12-22T11:18:20.410Z,6.92
2018-12-22T11:19:20.384Z,6.95
2018-12-22T11:20:20.388Z,6.94
2018-12-22T11:21:20.367Z,6.91
2018-12-22T11:22:20.375Z,6.89
2018-12-22T11:23:20.803Z,6.95
2018-12-22T11:24:20.346Z,6.97
2018-12-22T11:25:20.325Z,6.81
2018-12-22T11:26:20.310Z,6.88
2018-12-22T11:27:20.310Z,6.95
2018-12-22T11:28:20.286Z,6.81
2018-12-22T11:29:20.283Z,6.91
2018-12-22T11:30:20.262Z,6.91
2018-12-22T11:31:20.268Z,6.89
2018-12-22T11:32:20.252Z,6.94
2018-12-22T11:33:20.234Z,6.92
2018-12-22T11:34:20.232Z,6.91
2018-12-22T11:35:20.232Z,6.84
2018-12-22T11:36:20.218Z,6.88
2018-12-22T11:37:20.193Z,6.95
2018-12-22T11:38:20.185Z,6.94
2018-12-22T11:39:20.171Z,6.95
2018-12-22T11:40:20.155Z,6.98
2018-12-22T11:41:20.143Z,6.88
2018-12-22T11:42:20.138Z,6.81
2018-12-22T11:43:20.139Z,6.95
2018-12-22T11:44:20.114Z,6.92
2018-12-22T11:45:20.124Z,6.81
2018-12-22T11:46:20.090Z,6.77
2018-12-22T11:47:20.085Z,6.81
2018-12-22T11:48:20.071Z,6.85
2018-12-22T11:49:20.066Z,6.98
2018-12-22T11:50:20.048Z,6.91
2018-12-22T11:51:20.041Z,6.98
2018-12-22T11:52:20.026Z,6.81
2018-12-22T11:53:20.016Z,6.97
2018-12-22T11:54:20.006Z,6.97
2018-12-22T11:55:20.003Z,6.92
2018-12-22T11:56:19.984Z,6.97
2018-12-22T11:57:19.972Z,6.99
2018-12-22T11:58:19.973Z,7.07
2018-12-22T11:59:19.948Z,6.95
2018-12-22T12:00:19.944Z,7.07
2018-12-22T12:01:19.945Z,6.99
2018-12-22T12:02:19.914Z,7.02
2018-12-22T12:03:19.912Z,6.98
2018-12-22T12:04:19.891Z,6.98
2018-12-22T12:05:19.882Z,6.92
2018-12-22T12:06:19.882Z,6.92
2018-12-22T12:07:19.861Z,6.99
2018-12-22T12:08:19.865Z,6.94
2018-12-22T12:09:19.846Z,6.85
2018-12-22T12:10:19.840Z,6.91
2018-12-22T12:11:19.834Z,6.81
2018-12-22T12:12:19.812Z,6.89
2018-12-22T12:13:19.800Z,6.91
2018-12-22T12:14:19.794Z,6.88
2018-12-22T12:15:19.776Z,6.77
2018-12-22T12:16:19.768Z,6.84
2018-12-22T12:17:19.755Z,6.76
2018-12-22T12:18:19.746Z,6.77
2018-12-22T12:19:19.733Z,6.79
2018-12-22T12:20:19.720Z,6.79
2018-12-22T12:21:19.732Z,6.76
2018-12-22T12:22:19.718Z,6.73
2018-12-22T12:23:19.687Z,6.69
2018-12-22T12:24:19.678Z,6.61
2018-12-22T12:25:19.669Z,6.69
2018-12-22T12:26:19.653Z,6.66
2018-12-22T12:27:19.644Z,6.67
2018-12-22T12:28:19.633Z,6.67
2018-12-22T12:29:19.626Z,6.70
2018-12-22T12:30:19.616Z,6.64
2018-12-22T12:31:19.608Z,6.64
2018-12-22T12:32:19.589Z,6.73
2018-12-22T12:33:19.587Z,6.73
2018-12-22T12:34:19.592Z,6.67
2018-12-22T12:35:19.562Z,6.77
2018-12-22T12:36:19.562Z,6.77
2018-12-22T12:37:19.552Z,6.69
2018-12-22T12:38:19.522Z,6.76
2018-12-22T12:39:19.517Z,6.76
2018-12-22T12:40:19.505Z,6.81
2018-12-22T12:41:19.500Z,6.84
2018-12-22T12:42:19.488Z,6.69
2018-12-22T12:43:19.481Z,6.66
2018-12-22T12:44:19.486Z,6.79
2018-12-22T12:45:19.456Z,6.76
2018-12-22T12:46:19.435Z,6.74
2018-12-22T12:47:19.438Z,6.76
2018-12-22T12:48:19.418Z,6.66
2018-12-22T12:49:19.408Z,6.81
2018-12-22T12:50:19.398Z,6.73
2018-12-22T12:51:19.390Z,6.81
2018-12-22T12:52:19.384Z,6.69
2018-12-22T12:53:19.366Z,6.61
2018-12-22T12:54:19.351Z,6.67
2018-12-22T12:55:19.344Z,6.79
2018-12-22T12:56:19.336Z,6.80
2018-12-22T12:57:19.334Z,6.62
2018-12-22T12:58:19.309Z,6.61
2018-12-22T12:59:19.302Z,6.59
2018-12-22T13:00:19.291Z,6.70
2018-12-22T13:01:19.279Z,6.76
2018-12-22T13:02:19.271Z,6.76
2018-12-22T13:03:19.263Z,6.76
2018-12-22T13:04:19.269Z,6.73
2018-12-22T13:05:19.241Z,6.81
2018-12-22T13:06:19.249Z,6.88
2018-12-22T13:07:19.216Z,6.77
2018-12-22T13:08:19.204Z,6.74
2018-12-22T13:09:19.213Z,6.73
2018-12-22T13:10:19.193Z,6.67
2018-12-22T13:11:19.177Z,6.79
2018-12-22T13:12:19.170Z,6.62
2018-12-22T13:13:19.162Z,6.71
2018-12-22T13:14:19.143Z,6.77
2018-12-22T13:15:19.134Z,6.67
2018-12-22T13:16:19.127Z,6.73
2018-12-22T13:17:19.124Z,6.80
2018-12-22T13:18:19.101Z,6.66